createdAt,value
2023-03-27T00:01:31.111Z,9.60
2023-03-27T00:04:09.516Z,12.60
2023-03-27T00:06:49.346Z,13.10
2023-03-27T00:09:29.164Z,9.50
2023-03-27T00:12:08.322Z,8.70
2023-03-27T00:14:46.522Z,10.80
2023-03-27T00:17:24.667Z,13.40
2023-03-27T00:20:02.740Z,11.90
2023-03-27T00:22:39.915Z,12.50
2023-03-27T00:25:23.368Z,12.00
2023-03-27T00:28:02.240Z,13.60
2023-03-27T00:30:39.271Z,10.70
2023-03-27T00:33:17.162Z,12.80
2023-03-27T00:35:55.203Z,9.60
2023-03-27T00:38:32.479Z,13.90
2023-03-27T00:41:10.632Z,8.80
2023-03-27T00:43:49.952Z,14.00
2023-03-27T00:46:46.495Z,14.40
2023-03-27T00:49:29.168Z,12.50
2023-03-27T00:52:02.841Z,13.40
2023-03-27T00:54:41.865Z,12.20
2023-03-27T00:57:22.409Z,14.00
2023-03-27T01:00:02.478Z,13.70
2023-03-27T01:02:39.442Z,15.00
2023-03-27T01:05:19.023Z,12.30
2023-03-27T01:08:00.553Z,14.00
2023-03-27T01:10:59.656Z,12.40
2023-03-27T01:14:26.656Z,10.20
2023-03-27T01:17:29.791Z,10.60
2023-03-27T01:20:37.465Z,12.40
2023-03-27T01:23:59.463Z,12.40
2023-03-27T01:26:58.465Z,14.00
2023-03-27T01:32:59.651Z,13.10
2023-03-27T01:36:01.235Z,14.10
2023-03-27T01:38:56.823Z,12.70
2023-03-27T01:42:06.653Z,15.90
2023-03-27T01:44:57.781Z,13.90
2023-03-27T01:47:58.888Z,12.90
2023-03-27T01:51:01.353Z,12.50
2023-03-27T01:53:42.794Z,18.90
2023-03-27T01:56:27.735Z,14.30
2023-03-27T01:59:09.628Z,16.20
2023-03-27T02:01:51.015Z,16.80
2023-03-27T02:07:25.719Z,13.00
2023-03-27T02:10:08.673Z,13.90
2023-03-27T02:12:54.606Z,15.80
2023-03-27T02:15:38.960Z,16.00
2023-03-27T02:18:19.564Z,11.90
2023-03-27T02:20:55.598Z,13.20
2023-03-27T02:23:33.168Z,13.80
2023-03-27T02:26:14.028Z,15.80
2023-03-27T02:29:28.686Z,14.00
2023-03-27T02:32:41.113Z,13.10
2023-03-27T02:35:41.674Z,12.70
2023-03-27T02:38:51.866Z,15.10
2023-03-27T02:41:40.785Z,11.30
2023-03-27T02:44:47.272Z,14.50
2023-03-27T02:47:53.634Z,14.20
2023-03-27T02:50:44.538Z,12.70
2023-03-27T02:53:28.818Z,15.50
2023-03-27T02:56:08.076Z,14.00
2023-03-27T02:59:01.893Z,11.50
2023-03-27T03:01:38.630Z,14.70
2023-03-27T03:04:33.280Z,13.60
2023-03-27T03:07:19.044Z,14.10
2023-03-27T03:09:59.119Z,14.70
2023-03-27T03:12:36.802Z,14.30
2023-03-27T03:15:14.320Z,13.10
2023-03-27T03:17:52.298Z,15.30
2023-03-27T03:20:22.924Z,9.80
2023-03-27T03:22:54.697Z,16.30
2023-03-27T03:25:34.156Z,15.00
2023-03-27T03:28:12.044Z,14.70
2023-03-27T03:30:52.294Z,14.70
2023-03-27T03:33:30.485Z,12.60
2023-03-27T03:36:09.837Z,12.50
2023-03-27T03:38:47.303Z,13.50
2023-03-27T03:41:24.719Z,21.30
2023-03-27T03:44:01.783Z,15.20
2023-03-27T03:46:39.463Z,15.60
2023-03-27T03:49:16.920Z,14.20
2023-03-27T03:52:04.279Z,13.30
2023-03-27T03:54:44.986Z,18.40
2023-03-27T03:57:25.482Z,18.10
2023-03-27T03:59:56.041Z,16.90
2023-03-27T04:02:35.297Z,15.70
2023-03-27T04:05:08.989Z,12.60
2023-03-27T04:07:43.841Z,16.60
2023-03-27T04:10:19.624Z,15.50
2023-03-27T04:12:59.013Z,18.10
2023-03-27T04:15:36.900Z,16.70
2023-03-27T04:18:15.616Z,18.60
2023-03-27T04:20:55.111Z,17.10
2023-03-27T04:23:34.803Z,21.20
2023-03-27T04:26:13.386Z,17.00
2023-03-27T04:28:52.183Z,16.90
2023-03-27T04:31:23.360Z,18.40
2023-03-27T04:34:00.698Z,14.40
2023-03-27T04:36:39.066Z,17.70
2023-03-27T04:39:17.737Z,16.20
2023-03-27T04:41:55.345Z,13.00
2023-03-27T04:44:26.871Z,16.20
2023-03-27T04:47:02.939Z,14.90
2023-03-27T04:49:49.743Z,17.70
2023-03-27T04:52:21.137Z,13.30
2023-03-27T04:54:59.701Z,16.00
2023-03-27T04:57:38.813Z,14.00
2023-03-27T05:00:17.886Z,16.40
2023-03-27T05:02:55.247Z,13.70
2023-03-27T05:05:33.381Z,18.60
2023-03-27T05:08:11.816Z,16.60
2023-03-27T05:10:48.859Z,17.30
2023-03-27T05:13:26.222Z,15.90
2023-03-27T05:16:04.300Z,6.90
2023-03-27T05:18:42.495Z,12.70
2023-03-27T05:21:19.200Z,12.20
2023-03-27T05:23:56.828Z,9.00
2023-03-27T05:26:34.089Z,13.70
2023-03-27T05:29:06.809Z,12.80
2023-03-27T05:31:41.848Z,15.80
2023-03-27T05:34:21.369Z,10.60
2023-03-27T05:36:59.161Z,13.20
2023-03-27T05:39:37.086Z,11.90
2023-03-27T05:42:15.200Z,14.20
2023-03-27T05:44:52.541Z,15.40
2023-03-27T05:47:30.543Z,15.80
2023-03-27T05:50:09.547Z,15.40
2023-03-27T05:52:47.281Z,14.50
2023-03-27T05:55:27.559Z,12.00
2023-03-27T05:58:10.250Z,7.30
2023-03-27T06:00:47.957Z,14.70
2023-03-27T06:03:25.762Z,13.40
2023-03-27T06:06:07.831Z,12.70
2023-03-27T06:08:45.211Z,8.10
2023-03-27T06:11:23.672Z,13.80
2023-03-27T06:14:01.994Z,12.70
2023-03-27T06:16:40.784Z,12.90
2023-03-27T06:19:18.957Z,14.50
2023-03-27T06:21:50.454Z,10.30
2023-03-27T06:24:24.730Z,12.00
2023-03-27T06:27:04.056Z,12.00
2023-03-27T06:29:41.988Z,16.30
2023-03-27T06:32:19.323Z,10.40
2023-03-27T06:34:51.482Z,12.30
2023-03-27T06:37:35.651Z,15.70
2023-03-27T06:40:17.613Z,9.90
2023-03-27T06:43:04.263Z,12.70
2023-03-27T06:45:44.911Z,7.10
2023-03-27T06:48:25.338Z,12.40
2023-03-27T06:51:03.279Z,7.90
2023-03-27T06:53:41.777Z,9.50
2023-03-27T06:56:18.151Z,6.30
2023-03-27T06:58:48.742Z,13.20
2023-03-27T07:01:23.900Z,11.10
2023-03-27T07:04:01.179Z,13.60
2023-03-27T07:06:39.699Z,11.40
2023-03-27T07:09:11.445Z,14.60
2023-03-27T07:11:45.876Z,10.00
2023-03-27T07:14:24.746Z,13.90
2023-03-27T07:17:02.011Z,11.70
2023-03-27T07:19:39.747Z,11.30
2023-03-27T07:22:17.600Z,12.60
2023-03-27T07:24:57.517Z,6.40
2023-03-27T07:27:36.216Z,10.70
2023-03-27T07:30:15.638Z,6.50
2023-03-27T07:32:52.746Z,8.70
2023-03-27T07:35:32.170Z,10.20
2023-03-27T07:38:04.208Z,7.60
2023-03-27T07:40:42.432Z,7.00
2023-03-27T07:43:14.389Z,4.70
2023-03-27T07:45:47.159Z,8.70
2023-03-27T07:48:25.532Z,12.40
2023-03-27T07:53:47.341Z,8.50
2023-03-27T07:56:27.504Z,10.50
2023-03-27T07:59:06.087Z,5.50
2023-03-27T08:01:39.361Z,7.20
2023-03-27T08:04:18.922Z,6.20
2023-03-27T08:06:58.096Z,9.70
2023-03-27T08:09:37.156Z,7.70
2023-03-27T08:12:16.536Z,10.50
2023-03-27T08:14:55.429Z,9.70
2023-03-27T08:17:34.509Z,9.10
2023-03-27T08:20:16.076Z,4.60
2023-03-27T08:22:55.926Z,10.50
2023-03-27T08:25:37.079Z,9.70
2023-03-27T08:28:16.128Z,5.70
2023-03-27T08:30:54.224Z,5.40
2023-03-27T08:33:37.903Z,6.90
2023-03-27T08:36:17.313Z,7.50
2023-03-27T08:38:56.179Z,4.00
2023-03-27T08:41:45.840Z,7.90
2023-03-27T08:44:26.836Z,7.00
2023-03-27T08:47:04.842Z,6.50
2023-03-27T08:49:53.944Z,5.10
2023-03-27T08:52:33.606Z,4.50
2023-03-27T08:55:41.341Z,7.30
2023-03-27T08:58:26.523Z,8.00
2023-03-27T09:01:18.775Z,6.10
2023-03-27T09:04:28.439Z,5.50
2023-03-27T09:07:41.944Z,6.50
2023-03-27T09:11:15.385Z,6.70
2023-03-27T09:13:53.287Z,7.40
2023-03-27T09:16:41.952Z,8.30
2023-03-27T09:20:19.454Z,4.40
2023-03-27T09:23:27.714Z,7.30
2023-03-27T09:26:13.032Z,3.60
2023-03-27T09:29:10.400Z,6.00
2023-03-27T09:31:54.471Z,6.50
2023-03-27T09:34:34.428Z,3.30
2023-03-27T09:37:15.348Z,6.90
2023-03-27T09:39:55.420Z,4.00
2023-03-27T09:42:42.724Z,5.10
2023-03-27T09:45:22.258Z,5.30
2023-03-27T09:48:00.666Z,5.90
2023-03-27T09:50:50.121Z,4.60
2023-03-27T09:53:28.845Z,4.70
2023-03-27T09:56:15.593Z,7.10
2023-03-27T10:01:36.772Z,8.60
2023-03-27T10:04:23.694Z,4.30
2023-03-27T10:07:24.389Z,4.70
2023-03-27T10:10:21.502Z,5.20
2023-03-27T10:13:06.320Z,5.20
2023-03-27T10:15:45.262Z,4.50
2023-03-27T10:18:34.481Z,4.60
2023-03-27T10:21:19.675Z,3.90
2023-03-27T10:24:00.709Z,8.40
2023-03-27T10:26:34.977Z,3.60
2023-03-27T10:29:28.215Z,5.60
2023-03-27T10:32:07.382Z,4.60
2023-03-27T10:34:53.466Z,3.80
2023-03-27T10:37:37.871Z,3.60
2023-03-27T10:40:28.400Z,5.30
2023-03-27T10:43:41.002Z,6.90
2023-03-27T10:46:30.915Z,5.10
2023-03-27T10:49:21.421Z,4.00
2023-03-27T10:52:18.647Z,5.00
2023-03-27T10:55:33.507Z,3.60
2023-03-27T10:58:25.107Z,5.00
2023-03-27T11:01:22.222Z,4.50
2023-03-27T11:04:11.162Z,3.20
2023-03-27T11:06:53.052Z,3.10
2023-03-27T11:09:42.881Z,3.20
2023-03-27T11:12:24.634Z,4.50
2023-03-27T11:15:41.545Z,8.00
2023-03-27T11:18:29.244Z,2.90
2023-03-27T11:21:36.220Z,5.90
2023-03-27T11:24:33.129Z,3.50
2023-03-27T11:27:29.374Z,6.80
2023-03-27T11:30:33.445Z,4.20
2023-03-27T11:33:44.677Z,2.80
2023-03-27T11:36:45.711Z,3.70
2023-03-27T11:39:46.713Z,3.70
2023-03-27T11:45:05.195Z,5.40
2023-03-27T11:48:14.584Z,5.50
2023-03-27T11:51:33.712Z,1.90
2023-03-27T11:54:50.626Z,3.80
2023-03-27T11:57:33.734Z,4.30
2023-03-27T12:00:29.102Z,5.50
2023-03-27T12:03:37.747Z,4.00
2023-03-27T12:06:34.296Z,3.10
2023-03-27T12:09:48.351Z,4.40
2023-03-27T12:13:38.683Z,3.50
2023-03-27T12:16:58.481Z,4.70
2023-03-27T12:19:53.280Z,4.00
2023-03-27T12:23:16.358Z,5.20
2023-03-27T12:26:22.595Z,3.20
2023-03-27T12:29:38.783Z,3.00
2023-03-27T12:33:09.725Z,4.10
2023-03-27T12:35:57.992Z,3.10
2023-03-27T12:38:42.921Z,3.50
2023-03-27T12:41:33.380Z,5.50
2023-03-27T12:44:18.849Z,4.60
2023-03-27T12:47:14.930Z,3.00
2023-03-27T12:49:58.786Z,3.80
2023-03-27T12:52:38.765Z,2.20
2023-03-27T12:55:19.420Z,5.30
2023-03-27T12:57:52.667Z,3.20
2023-03-27T13:00:33.459Z,3.00
2023-03-27T13:03:49.092Z,7.10
2023-03-27T13:07:01.131Z,5.70
2023-03-27T13:12:50.623Z,10.50
2023-03-27T13:16:12.598Z,4.70
2023-03-27T13:19:34.041Z,4.40
2023-03-27T13:22:41.897Z,9.10
2023-03-27T13:25:47.029Z,41.30
2023-03-27T13:28:39.113Z,4.40
2023-03-27T13:31:49.653Z,4.00
2023-03-27T13:34:41.814Z,5.50
2023-03-27T13:37:17.851Z,6.90
2023-03-27T13:40:02.850Z,5.00
2023-03-27T13:42:47.850Z,3.80
2023-03-27T13:46:00.576Z,4.00
2023-03-27T13:48:50.882Z,2.60
2023-03-27T13:52:13.402Z,4.40
2023-03-27T13:55:19.286Z,2.50
2023-03-27T13:58:33.440Z,5.00
2023-03-27T14:01:45.911Z,4.50
2023-03-27T14:04:53.803Z,4.40
2023-03-27T14:07:56.887Z,10.20
2023-03-27T14:10:40.895Z,4.40
2023-03-27T14:13:40.468Z,4.00
2023-03-27T14:16:38.045Z,4.30
2023-03-27T14:19:52.260Z,3.30
2023-03-27T14:22:57.449Z,4.70
2023-03-27T14:25:46.152Z,2.90
2023-03-27T14:28:59.616Z,3.50
2023-03-27T14:31:36.188Z,6.10
2023-03-27T14:34:17.477Z,5.30
2023-03-27T14:36:52.309Z,6.90
2023-03-27T14:39:28.212Z,6.90
2023-03-27T14:42:03.715Z,4.00
2023-03-27T14:44:39.381Z,3.90
2023-03-27T14:47:27.452Z,9.00
2023-03-27T14:50:02.198Z,6.00
2023-03-27T14:52:39.822Z,5.60
2023-03-27T14:55:19.145Z,11.30
2023-03-27T14:57:59.286Z,4.20
2023-03-27T15:00:39.943Z,3.70
2023-03-27T15:03:26.953Z,3.00
2023-03-27T15:09:00.062Z,8.90
2023-03-27T15:11:44.692Z,4.20
2023-03-27T15:14:29.684Z,6.10
2023-03-27T15:17:19.588Z,2.60
2023-03-27T15:20:14.858Z,16.70
2023-03-27T15:23:08.848Z,2.80
2023-03-27T15:25:59.134Z,3.20
2023-03-27T15:29:05.391Z,8.70
2023-03-27T15:31:49.619Z,4.30
2023-03-27T15:34:35.004Z,3.20
2023-03-27T15:37:23.953Z,2.10
2023-03-27T15:40:15.960Z,5.90
2023-03-27T15:43:03.581Z,4.50
2023-03-27T15:46:23.001Z,4.60
2023-03-27T15:49:30.386Z,4.90
2023-03-27T15:52:34.556Z,4.60
2023-03-27T15:55:14.271Z,3.10
2023-03-27T15:57:52.124Z,2.60
2023-03-27T16:00:31.965Z,4.20
2023-03-27T16:03:17.763Z,4.00
2023-03-27T16:06:01.783Z,2.30
2023-03-27T16:08:43.730Z,4.00
2023-03-27T16:11:47.885Z,4.40
2023-03-27T16:14:34.537Z,4.80
2023-03-27T16:17:22.094Z,11.30
2023-03-27T16:20:27.289Z,5.10
2023-03-27T16:23:07.684Z,3.90
2023-03-27T16:28:23.534Z,4.10
2023-03-27T16:31:00.915Z,3.80
2023-03-27T16:33:38.777Z,17.40
2023-03-27T16:36:27.636Z,3.00
2023-03-27T16:39:07.426Z,15.10
2023-03-27T16:41:44.880Z,16.70
2023-03-27T16:44:22.436Z,31.50
2023-03-27T16:46:59.925Z,7.50
2023-03-27T16:49:31.786Z,7.20
2023-03-27T16:52:05.098Z,4.50
2023-03-27T16:54:43.120Z,21.60
2023-03-27T16:57:22.049Z,7.70
2023-03-27T16:59:55.097Z,4.70
2023-03-27T17:02:36.841Z,4.50
2023-03-27T17:05:16.570Z,13.50
2023-03-27T17:07:52.934Z,3.60
2023-03-27T17:10:31.619Z,3.00
2023-03-27T17:13:10.493Z,2.30
2023-03-27T17:15:51.607Z,2.20
2023-03-27T17:18:30.103Z,2.80
2023-03-27T17:21:09.392Z,4.20
2023-03-27T17:23:49.134Z,2.90
2023-03-27T17:26:31.604Z,4.50
2023-03-27T17:29:15.273Z,3.20
2023-03-27T17:31:53.891Z,3.10
2023-03-27T17:34:32.435Z,2.80
2023-03-27T17:37:12.890Z,3.10
2023-03-27T17:39:51.157Z,4.90
2023-03-27T17:42:29.890Z,3.20
2023-03-27T17:45:00.610Z,3.10
2023-03-27T17:47:36.689Z,2.90
2023-03-27T17:50:08.832Z,2.90
2023-03-27T17:52:45.515Z,4.20
2023-03-27T17:55:24.027Z,4.20
2023-03-27T17:58:09.421Z,3.20
2023-03-27T18:00:45.886Z,4.00
2023-03-27T18:03:26.049Z,3.20
2023-03-27T18:06:05.740Z,7.40
2023-03-27T18:08:44.443Z,4.40
2023-03-27T18:11:23.354Z,3.40
2023-03-27T18:14:00.801Z,4.50
2023-03-27T18:16:38.479Z,4.00
2023-03-27T18:19:17.765Z,4.50
2023-03-27T18:21:56.107Z,3.60
2023-03-27T18:24:34.962Z,4.20
2023-03-27T18:27:13.632Z,4.40
2023-03-27T18:29:51.609Z,3.40
2023-03-27T18:32:29.529Z,6.90
2023-03-27T18:35:01.168Z,6.20
2023-03-27T18:37:40.493Z,2.90
2023-03-27T18:40:20.671Z,6.40
2023-03-27T18:42:59.573Z,3.10
2023-03-27T18:45:31.958Z,3.80
2023-03-27T18:48:08.672Z,3.50
2023-03-27T18:50:46.096Z,3.50
2023-03-27T18:53:24.717Z,4.40
2023-03-27T18:56:03.790Z,3.60
2023-03-27T18:58:42.528Z,4.60
2023-03-27T19:01:20.084Z,7.40
2023-03-27T19:03:57.671Z,5.60
2023-03-27T19:06:37.085Z,3.80
2023-03-27T19:09:14.647Z,2.90
2023-03-27T19:11:55.840Z,5.50
2023-03-27T19:14:33.615Z,4.80
2023-03-27T19:17:16.230Z,3.30
2023-03-27T19:19:54.833Z,5.00
2023-03-27T19:22:31.952Z,4.80
2023-03-27T19:25:09.668Z,2.70
2023-03-27T19:27:47.623Z,3.90
2023-03-27T19:30:25.376Z,4.50
2023-03-27T19:33:04.810Z,5.00
2023-03-27T19:35:43.227Z,5.60
2023-03-27T19:38:16.960Z,3.50
2023-03-27T19:40:50.374Z,5.20
2023-03-27T19:43:28.574Z,5.40
2023-03-27T19:46:15.818Z,6.30
2023-03-27T19:48:50.458Z,6.30
2023-03-27T19:51:28.547Z,6.10
2023-03-27T19:54:06.121Z,2.40
2023-03-27T19:56:43.044Z,3.20
2023-03-27T19:59:28.195Z,3.50
2023-03-27T20:02:08.510Z,4.90
2023-03-27T20:04:45.430Z,5.40
2023-03-27T20:07:22.885Z,7.00
2023-03-27T20:10:00.021Z,6.20
2023-03-27T20:12:37.407Z,7.30
2023-03-27T20:15:14.820Z,7.60
2023-03-27T20:17:52.777Z,5.50
2023-03-27T20:20:29.748Z,12.10
2023-03-27T20:23:06.882Z,12.60
2023-03-27T20:25:44.495Z,10.70
2023-03-27T20:28:14.865Z,16.10
2023-03-27T20:30:50.145Z,11.20
2023-03-27T20:33:27.126Z,13.50
2023-03-27T20:36:04.994Z,6.50
2023-03-27T20:38:42.090Z,4.90
2023-03-27T20:41:20.294Z,9.40
2023-03-27T20:44:00.398Z,4.90
2023-03-27T20:46:39.521Z,6.80
2023-03-27T20:52:05.933Z,4.70
2023-03-27T20:54:44.117Z,4.50
2023-03-27T20:57:22.578Z,4.20
2023-03-27T20:59:59.217Z,6.70
2023-03-27T21:02:36.809Z,5.00
2023-03-27T21:05:14.309Z,2.30
2023-03-27T21:07:53.175Z,5.80
2023-03-27T21:10:30.245Z,2.20
2023-03-27T21:13:08.299Z,5.90
2023-03-27T21:15:39.395Z,7.90
2023-03-27T21:18:12.150Z,5.20
2023-03-27T21:20:49.474Z,3.30
2023-03-27T21:23:27.031Z,2.10
2023-03-27T21:26:04.364Z,3.20
2023-03-27T21:28:41.068Z,6.70
2023-03-27T21:31:15.918Z,4.40
2023-03-27T21:33:46.946Z,6.00
2023-03-27T21:36:18.015Z,6.20
2023-03-27T21:38:51.732Z,3.20
2023-03-27T21:41:31.233Z,4.10
2023-03-27T21:44:09.044Z,8.30
2023-03-27T21:46:46.943Z,5.00
2023-03-27T21:49:25.852Z,5.60
2023-03-27T21:52:02.355Z,6.70
2023-03-27T21:54:32.989Z,4.50
2023-03-27T21:57:11.308Z,6.60
2023-03-27T21:59:48.717Z,3.60
2023-03-27T22:02:18.691Z,4.60
2023-03-27T22:04:53.792Z,9.60
2023-03-27T22:07:31.325Z,5.80
2023-03-27T22:10:09.886Z,6.30
2023-03-27T22:12:47.245Z,6.40
2023-03-27T22:15:24.849Z,9.50
2023-03-27T22:18:02.067Z,5.20
2023-03-27T22:20:39.099Z,5.00
2023-03-27T22:23:16.473Z,7.20
2023-03-27T22:26:01.628Z,5.30
2023-03-27T22:28:38.924Z,7.60
2023-03-27T22:31:11.267Z,7.00
2023-03-27T22:33:51.604Z,3.70
2023-03-27T22:36:28.377Z,4.40
2023-03-27T22:39:06.158Z,5.20
2023-03-27T22:41:43.449Z,6.60
2023-03-27T22:44:14.323Z,4.00
2023-03-27T22:46:48.577Z,7.50
2023-03-27T22:49:26.748Z,2.10
2023-03-27T22:52:03.316Z,3.40
2023-03-27T22:54:34.252Z,4.30
2023-03-27T22:57:12.081Z,4.60
2023-03-27T22:59:48.845Z,3.50
2023-03-27T23:02:25.476Z,7.50
2023-03-27T23:05:03.300Z,5.60
2023-03-27T23:07:33.919Z,6.00
2023-03-27T23:10:09.974Z,6.60
2023-03-27T23:12:47.140Z,6.60
2023-03-27T23:15:30.309Z,7.50
2023-03-27T23:18:09.741Z,6.60
2023-03-27T23:20:48.234Z,5.30
2023-03-27T23:23:25.948Z,3.60
2023-03-27T23:26:03.971Z,6.20
2023-03-27T23:28:42.722Z,4.40
2023-03-27T23:31:23.790Z,6.50
2023-03-27T23:34:02.857Z,8.50
2023-03-27T23:36:39.912Z,6.10
2023-03-27T23:39:17.468Z,4.10
2023-03-27T23:41:50.066Z,6.80
2023-03-27T23:44:29.453Z,4.30
2023-03-27T23:47:07.786Z,6.20
2023-03-27T23:49:42.127Z,5.20
2023-03-27T23:52:14.532Z,5.20
2023-03-27T23:54:50.143Z,4.90
2023-03-27T23:59:57.034Z,6.00
